createdAt,value
2023-02-18T00:02:16.082Z,2.30
2023-02-18T00:04:45.750Z,2.37
2023-02-18T00:07:15.340Z,3.13
2023-02-18T00:09:44.953Z,2.30
2023-02-18T00:12:17.110Z,2.10
2023-02-18T00:14:46.721Z,2.07
2023-02-18T00:17:16.340Z,2.47
2023-02-18T00:19:45.993Z,2.00
2023-02-18T00:22:15.604Z,1.73
2023-02-18T00:24:45.255Z,2.53
2023-02-18T00:27:17.544Z,2.83
2023-02-18T00:29:47.179Z,3.50
2023-02-18T00:32:17.014Z,2.10
2023-02-18T00:34:46.813Z,2.33
2023-02-18T00:37:16.597Z,2.87
2023-02-18T00:39:46.715Z,2.10
2023-02-18T00:42:18.991Z,2.63
2023-02-18T00:44:48.635Z,2.73
2023-02-18T00:47:18.266Z,2.20
2023-02-18T00:49:47.880Z,2.47
2023-02-18T00:52:17.492Z,2.23
2023-02-18T00:54:47.087Z,2.20
2023-02-18T00:57:19.289Z,1.70
2023-02-18T00:59:49.098Z,2.97
2023-02-18T01:02:18.779Z,2.60
2023-02-18T01:04:48.574Z,1.73
2023-02-18T01:07:18.241Z,2.03
2023-02-18T01:09:47.868Z,2.80
2023-02-18T01:12:20.428Z,2.87
2023-02-18T01:14:50.863Z,2.70
2023-02-18T01:17:20.476Z,2.60
2023-02-18T01:19:50.108Z,2.47
2023-02-18T01:22:20.047Z,2.37
2023-02-18T01:24:49.904Z,2.30
2023-02-18T01:27:22.951Z,2.60
2023-02-18T01:29:52.765Z,2.20
2023-02-18T01:32:22.684Z,2.20
2023-02-18T01:34:53.315Z,1.77
2023-02-18T01:37:23.291Z,2.00
2023-02-18T01:39:54.275Z,3.20
2023-02-18T01:42:29.068Z,2.53
2023-02-18T01:45:29.117Z,2.60
2023-02-18T01:47:59.084Z,3.40
2023-02-18T01:50:30.136Z,3.27
2023-02-18T01:53:00.575Z,2.63
2023-02-18T01:55:33.467Z,3.67
2023-02-18T01:58:06.639Z,2.80
2023-02-18T02:00:37.236Z,3.80
2023-02-18T02:03:07.478Z,3.40
2023-02-18T02:05:37.664Z,4.10
2023-02-18T02:08:08.760Z,3.80
2023-02-18T02:10:52.235Z,4.03
2023-02-18T02:13:32.317Z,4.67
2023-02-18T02:16:11.964Z,3.53
2023-02-18T02:18:57.081Z,5.00
2023-02-18T02:21:51.099Z,4.97
2023-02-18T02:24:58.077Z,5.67
2023-02-18T02:27:38.433Z,7.53
2023-02-18T02:30:43.933Z,8.73
2023-02-18T02:33:43.308Z,8.60
2023-02-18T02:36:18.316Z,10.80
2023-02-18T02:38:58.142Z,11.50
2023-02-18T02:41:43.546Z,13.00
2023-02-18T02:44:23.218Z,13.77
2023-02-18T02:46:56.685Z,13.40
2023-02-18T02:49:36.305Z,16.47
2023-02-18T02:52:13.056Z,18.40
2023-02-18T02:54:42.826Z,17.80
2023-02-18T02:57:56.532Z,19.07
2023-02-18T03:00:50.072Z,20.33
2023-02-18T03:03:42.076Z,20.30
2023-02-18T03:06:39.416Z,21.83
2023-02-18T03:09:19.240Z,19.97
2023-02-18T03:11:58.066Z,21.07
2023-02-18T03:14:32.604Z,23.87
2023-02-18T03:17:08.574Z,23.40
2023-02-18T03:19:42.764Z,23.70
2023-02-18T03:22:16.568Z,23.40
2023-02-18T03:24:51.449Z,23.80
2023-02-18T03:27:26.100Z,24.30
2023-02-18T03:30:00.187Z,24.07
2023-02-18T03:32:33.258Z,24.80
2023-02-18T03:35:05.794Z,25.87
2023-02-18T03:37:39.852Z,27.37
2023-02-18T03:40:14.224Z,28.43
2023-02-18T03:42:44.096Z,27.27
2023-02-18T03:45:14.338Z,27.07
2023-02-18T03:47:44.651Z,29.20
2023-02-18T03:50:14.348Z,30.20
2023-02-18T03:52:44.006Z,30.63
2023-02-18T03:55:16.494Z,30.03
2023-02-18T03:57:46.115Z,29.17
2023-02-18T04:00:17.336Z,31.47
2023-02-18T04:02:46.934Z,30.03
2023-02-18T04:05:16.564Z,30.67
2023-02-18T04:07:46.210Z,29.03
2023-02-18T04:10:18.438Z,32.77
2023-02-18T04:12:48.050Z,32.17
2023-02-18T04:15:17.706Z,31.23
2023-02-18T04:17:47.324Z,31.30
2023-02-18T04:20:16.994Z,30.10
2023-02-18T04:22:46.595Z,32.20
2023-02-18T04:25:18.861Z,31.77
2023-02-18T04:27:48.489Z,33.30
2023-02-18T04:30:19.073Z,32.23
2023-02-18T04:32:48.753Z,32.93
2023-02-18T04:35:18.844Z,36.00
2023-02-18T04:37:48.514Z,35.57
2023-02-18T04:40:20.900Z,38.00
2023-02-18T04:42:50.557Z,34.00
2023-02-18T04:45:20.781Z,35.30
2023-02-18T04:47:50.582Z,38.77
2023-02-18T04:50:20.677Z,38.20
2023-02-18T04:52:50.739Z,39.60
2023-02-18T04:55:23.528Z,39.40
2023-02-18T04:57:53.349Z,40.37
2023-02-18T05:00:23.668Z,42.40
2023-02-18T05:02:53.487Z,41.77
2023-02-18T05:05:23.627Z,39.17
2023-02-18T05:07:53.372Z,36.93
2023-02-18T05:10:25.793Z,33.77
2023-02-18T05:12:55.526Z,34.77
2023-02-18T05:15:25.269Z,34.70
2023-02-18T05:17:55.276Z,36.63
2023-02-18T05:20:25.151Z,33.20
2023-02-18T05:22:54.819Z,36.40
2023-02-18T05:25:27.091Z,33.67
2023-02-18T05:27:56.744Z,35.17
2023-02-18T05:30:26.602Z,35.80
2023-02-18T05:32:56.268Z,36.30
2023-02-18T05:35:25.858Z,34.67
2023-02-18T05:37:55.514Z,35.50
2023-02-18T05:40:27.691Z,36.00
2023-02-18T05:42:57.466Z,39.17
2023-02-18T05:45:27.189Z,36.00
2023-02-18T05:47:56.823Z,39.37
2023-02-18T05:50:26.634Z,38.30
2023-02-18T05:52:56.296Z,38.60
2023-02-18T05:55:28.673Z,35.47
2023-02-18T05:57:58.391Z,37.83
2023-02-18T06:00:30.006Z,37.23
2023-02-18T06:02:59.643Z,38.00
2023-02-18T06:05:29.440Z,36.77
2023-02-18T06:07:59.096Z,36.83
2023-02-18T06:10:31.338Z,36.87
2023-02-18T06:13:02.503Z,36.07
2023-02-18T06:15:32.192Z,36.27
2023-02-18T06:18:02.045Z,36.33
2023-02-18T06:20:31.817Z,37.20
2023-02-18T06:23:01.515Z,36.00
2023-02-18T06:25:33.900Z,34.80
2023-02-18T06:28:03.594Z,36.10
2023-02-18T06:30:33.282Z,34.13
2023-02-18T06:33:04.303Z,32.13
2023-02-18T06:35:35.135Z,33.10
2023-02-18T06:38:05.018Z,30.13
2023-02-18T06:40:37.238Z,30.17
2023-02-18T06:43:06.843Z,27.97
2023-02-18T06:45:36.492Z,23.73
2023-02-18T06:48:06.246Z,25.27
2023-02-18T06:50:35.836Z,21.00
2023-02-18T06:53:05.602Z,19.03
2023-02-18T06:55:37.817Z,19.63
2023-02-18T06:58:08.225Z,18.33
2023-02-18T07:00:37.981Z,19.53
2023-02-18T07:03:08.338Z,19.47
2023-02-18T07:05:38.229Z,19.80
2023-02-18T07:08:08.202Z,20.53
2023-02-18T07:10:40.688Z,21.93
2023-02-18T07:13:10.486Z,22.63
2023-02-18T07:15:40.278Z,22.00
2023-02-18T07:18:09.889Z,21.67
2023-02-18T07:20:39.603Z,21.87
2023-02-18T07:23:09.411Z,21.30
2023-02-18T07:25:41.751Z,21.60
2023-02-18T07:28:11.428Z,20.93
2023-02-18T07:30:41.162Z,22.30
2023-02-18T07:33:10.913Z,19.67
2023-02-18T07:35:40.519Z,20.87
2023-02-18T07:38:10.160Z,17.70
2023-02-18T07:40:42.324Z,17.33
2023-02-18T07:43:11.915Z,17.10
2023-02-18T07:45:41.799Z,16.13
2023-02-18T07:48:11.490Z,15.20
2023-02-18T07:50:42.617Z,15.00
2023-02-18T07:53:13.901Z,13.73
2023-02-18T07:55:52.304Z,12.80
2023-02-18T07:58:24.920Z,11.83
2023-02-18T08:00:54.948Z,12.00
2023-02-18T08:03:26.110Z,11.77
2023-02-18T08:05:56.651Z,10.23
2023-02-18T08:08:53.268Z,9.07
2023-02-18T08:12:14.053Z,8.57
2023-02-18T08:15:13.508Z,8.37
2023-02-18T08:17:58.420Z,7.63
2023-02-18T08:20:56.783Z,7.83
2023-02-18T08:23:34.629Z,8.20
2023-02-18T08:26:17.030Z,8.00
2023-02-18T08:29:03.305Z,6.87
2023-02-18T08:31:44.811Z,6.57
2023-02-18T08:34:27.074Z,6.97
2023-02-18T08:37:01.554Z,6.13
2023-02-18T08:39:49.052Z,6.57
2023-02-18T08:42:33.397Z,5.20
2023-02-18T08:45:31.251Z,5.37
2023-02-18T08:48:16.946Z,4.63
2023-02-18T08:51:08.890Z,4.53
2023-02-18T08:53:51.103Z,5.13
2023-02-18T08:56:28.490Z,4.20
2023-02-18T08:59:13.104Z,4.40
2023-02-18T09:02:14.789Z,4.10
2023-02-18T09:04:45.277Z,3.70
2023-02-18T09:07:30.482Z,3.83
2023-02-18T09:10:32.822Z,2.93
2023-02-18T09:19:37.034Z,7.43
2023-02-18T09:22:30.517Z,14.17
2023-02-18T09:41:52.099Z,1.40
2023-02-18T09:58:24.057Z,1.00
2023-02-18T10:01:39.620Z,1.00
2023-02-18T10:04:19.322Z,1.63
2023-02-18T10:06:53.590Z,1.13
2023-02-18T10:09:26.847Z,1.33
2023-02-18T10:12:00.088Z,1.10
2023-02-18T10:14:32.687Z,1.20
2023-02-18T10:17:03.011Z,0.97
2023-02-18T10:19:36.233Z,0.93
2023-02-18T10:22:09.622Z,3.97
2023-02-18T10:24:43.137Z,1.17
2023-02-18T10:27:16.401Z,1.10
2023-02-18T10:29:48.590Z,2.70
2023-02-18T10:32:25.012Z,1.20
2023-02-18T10:34:59.362Z,0.80
2023-02-18T10:37:50.641Z,2.70
2023-02-18T10:40:27.748Z,1.10
2023-02-18T10:43:06.802Z,1.00
2023-02-18T10:45:47.207Z,1.10
2023-02-18T10:48:33.619Z,1.30
2023-02-18T10:51:11.831Z,3.03
2023-02-18T10:53:45.050Z,1.50
2023-02-18T10:56:36.010Z,1.30
2023-02-18T10:59:13.915Z,1.37
2023-02-18T11:01:46.895Z,3.13
2023-02-18T11:04:19.413Z,1.60
2023-02-18T11:06:50.931Z,0.80
2023-02-18T11:09:32.767Z,1.30
2023-02-18T11:12:08.782Z,1.00
2023-02-18T11:14:42.057Z,0.90
2023-02-18T11:17:29.268Z,1.20
2023-02-18T11:20:01.763Z,2.37
2023-02-18T11:22:33.466Z,1.70
2023-02-18T11:25:05.433Z,1.60
2023-02-18T11:27:44.922Z,1.30
2023-02-18T11:30:22.904Z,1.33
2023-02-18T11:32:59.345Z,1.73
2023-02-18T11:35:32.950Z,1.77
2023-02-18T11:38:04.713Z,2.60
2023-02-18T11:40:36.430Z,2.40
2023-02-18T11:43:30.522Z,2.67
2023-02-18T11:46:14.878Z,2.77
2023-02-18T11:48:50.005Z,2.00
2023-02-18T11:51:22.754Z,2.27
2023-02-18T11:54:02.572Z,1.90
2023-02-18T11:56:34.993Z,1.73
2023-02-18T11:59:07.278Z,2.00
2023-02-18T12:01:46.473Z,1.83
2023-02-18T12:04:23.225Z,2.13
2023-02-18T12:06:58.186Z,2.67
2023-02-18T12:09:32.547Z,2.00
2023-02-18T12:12:05.517Z,2.17
2023-02-18T12:14:35.977Z,1.60
2023-02-18T12:17:26.831Z,1.73
2023-02-18T12:20:29.731Z,1.80
2023-02-18T12:23:08.068Z,1.50
2023-02-18T12:25:46.778Z,1.60
2023-02-18T12:28:29.201Z,1.43
2023-02-18T12:31:25.210Z,1.63
2023-02-18T12:34:07.034Z,1.47
2023-02-18T12:37:00.089Z,1.50
2023-02-18T12:39:44.740Z,1.70
2023-02-18T13:21:41.294Z,2.50
2023-02-18T13:28:22.002Z,2.33
2023-02-18T13:31:31.263Z,2.90
2023-02-18T14:02:54.499Z,5.00
2023-02-18T14:30:28.541Z,3.20
2023-02-18T14:33:02.503Z,3.73
2023-02-18T14:35:37.720Z,3.37
2023-02-18T14:38:23.352Z,3.43
2023-02-18T14:41:01.568Z,3.53
2023-02-18T14:43:54.469Z,3.80
2023-02-18T14:46:38.444Z,3.83
2023-02-18T14:49:56.421Z,3.50
2023-02-18T15:01:04.593Z,4.77
2023-02-18T15:05:10.836Z,4.30
2023-02-18T15:08:41.397Z,3.90
2023-02-18T15:13:01.212Z,4.30
2023-02-18T15:23:16.485Z,4.30
2023-02-18T15:45:50.110Z,4.70
2023-02-18T15:48:33.610Z,4.00
2023-02-18T15:51:16.916Z,4.40
2023-02-18T15:53:57.182Z,6.33
2023-02-18T15:56:33.023Z,5.03
2023-02-18T15:59:22.489Z,7.10
2023-02-18T16:02:29.866Z,4.23
2023-02-18T16:05:11.343Z,3.47
2023-02-18T17:58:15.268Z,3.60
2023-02-18T19:36:53.032Z,3.40
2023-02-18T19:39:22.646Z,4.00
2023-02-18T19:41:52.319Z,3.50
2023-02-18T19:44:21.931Z,3.90
2023-02-18T19:46:51.761Z,3.80
2023-02-18T19:49:21.382Z,4.67
2023-02-18T19:51:53.624Z,3.80
2023-02-18T19:54:23.289Z,4.60
2023-02-18T19:56:53.197Z,3.37
2023-02-18T19:59:22.881Z,3.70
2023-02-18T20:01:52.618Z,3.23
2023-02-18T20:04:22.351Z,4.13
2023-02-18T21:11:32.581Z,3.90
2023-02-18T22:21:54.256Z,9.47
2023-02-18T22:38:25.676Z,8.37
